sensor_id;sensor_type;location;lat;lon;timestamp;P1;durP1;ratioP1;P2;durP2;ratioP2
7917;SDS011;4004;42.624;23.386;2024-02-23T00:00:13;15.23;;;12.53;;
7917;SDS011;4004;42.624;23.386;2024-02-23T00:02:43;18.80;;;12.70;;
7917;SDS011;4004;42.624;23.386;2024-02-23T00:05:10;16.23;;;11.90;;
7917;SDS011;4004;42.624;23.386;2024-02-23T00:07:38;15.73;;;11.67;;
7917;SDS011;4004;42.624;23.386;2024-02-23T00:10:05;15.00;;;11.40;;
7917;SDS011;4004;42.624;23.386;2024-02-23T00:12:33;18.67;;;11.87;;
7917;SDS011;4004;42.624;23.386;2024-02-23T00:15:00;16.17;;;12.37;;
7917;SDS011;4004;42.624;23.386;2024-02-23T00:17:27;17.07;;;12.30;;
7917;SDS011;4004;42.624;23.386;2024-02-23T00:19:54;17.17;;;11.93;;
7917;SDS011;4004;42.624;23.386;2024-02-23T00:22:21;22.37;;;12.60;;
7917;SDS011;4004;42.624;23.386;2024-02-23T00:24:49;15.13;;;11.23;;
7917;SDS011;4004;42.624;23.386;2024-02-23T00:27:16;21.83;;;11.10;;
7917;SDS011;4004;42.624;23.386;2024-02-23T00:29:43;14.00;;;10.73;;
7917;SDS011;4004;42.624;23.386;2024-02-23T00:32:10;13.90;;;10.10;;
7917;SDS011;4004;42.624;23.386;2024-02-23T00:34:37;14.57;;;11.57;;
7917;SDS011;4004;42.624;23.386;2024-02-23T00:37:04;16.50;;;11.07;;
7917;SDS011;4004;42.624;23.386;2024-02-23T00:39:33;18.63;;;12.10;;
7917;SDS011;4004;42.624;23.386;2024-02-23T00:42:01;16.67;;;10.57;;
7917;SDS011;4004;42.624;23.386;2024-02-23T00:44:28;14.60;;;10.80;;
7917;SDS011;4004;42.624;23.386;2024-02-23T00:46:55;13.80;;;10.70;;
7917;SDS011;4004;42.624;23.386;2024-02-23T00:49:23;12.87;;;10.43;;
7917;SDS011;4004;42.624;23.386;2024-02-23T00:51:50;19.07;;;10.80;;
7917;SDS011;4004;42.624;23.386;2024-02-23T00:54:17;14.70;;;11.17;;
7917;SDS011;4004;42.624;23.386;2024-02-23T00:56:44;14.57;;;10.87;;
7917;SDS011;4004;42.624;23.386;2024-02-23T00:59:12;14.00;;;12.40;;
7917;SDS011;4004;42.624;23.386;2024-02-23T01:01:39;14.50;;;11.00;;
7917;SDS011;4004;42.624;23.386;2024-02-23T01:04:06;14.47;;;12.07;;
7917;SDS011;4004;42.624;23.386;2024-02-23T01:06:33;19.43;;;12.67;;
7917;SDS011;4004;42.624;23.386;2024-02-23T01:09:00;18.17;;;11.67;;
7917;SDS011;4004;42.624;23.386;2024-02-23T01:11:29;14.27;;;10.70;;
7917;SDS011;4004;42.624;23.386;2024-02-23T01:13:56;14.87;;;11.43;;
7917;SDS011;4004;42.624;23.386;2024-02-23T01:16:24;15.83;;;11.10;;
7917;SDS011;4004;42.624;23.386;2024-02-23T01:18:51;14.27;;;10.97;;
7917;SDS011;4004;42.624;23.386;2024-02-23T01:21:18;16.80;;;11.20;;
7917;SDS011;4004;42.624;23.386;2024-02-23T01:23:45;18.80;;;11.37;;
7917;SDS011;4004;42.624;23.386;2024-02-23T01:26:12;15.27;;;10.70;;
7917;SDS011;4004;42.624;23.386;2024-02-23T01:28:39;13.80;;;10.87;;
7917;SDS011;4004;42.624;23.386;2024-02-23T01:31:08;13.30;;;11.40;;
7917;SDS011;4004;42.624;23.386;2024-02-23T01:33:37;13.43;;;11.10;;
7917;SDS011;4004;42.624;23.386;2024-02-23T01:36:04;17.77;;;11.53;;
7917;SDS011;4004;42.624;23.386;2024-02-23T01:38:31;15.40;;;10.97;;
7917;SDS011;4004;42.624;23.386;2024-02-23T01:40:58;14.37;;;11.10;;
7917;SDS011;4004;42.624;23.386;2024-02-23T01:43:25;14.57;;;10.63;;
7917;SDS011;4004;42.624;23.386;2024-02-23T01:45:53;16.10;;;11.13;;
7917;SDS011;4004;42.624;23.386;2024-02-23T01:48:20;15.73;;;10.27;;
7917;SDS011;4004;42.624;23.386;2024-02-23T01:50:49;14.93;;;9.83;;
7917;SDS011;4004;42.624;23.386;2024-02-23T01:53:16;12.53;;;9.90;;
7917;SDS011;4004;42.624;23.386;2024-02-23T01:55:45;14.10;;;10.27;;
7917;SDS011;4004;42.624;23.386;2024-02-23T01:58:12;14.07;;;9.57;;
7917;SDS011;4004;42.624;23.386;2024-02-23T02:00:39;12.83;;;9.47;;
7917;SDS011;4004;42.624;23.386;2024-02-23T02:03:06;13.47;;;9.57;;
7917;SDS011;4004;42.624;23.386;2024-02-23T02:05:35;14.53;;;10.33;;
7917;SDS011;4004;42.624;23.386;2024-02-23T02:08:04;15.90;;;10.40;;
7917;SDS011;4004;42.624;23.386;2024-02-23T02:10:31;13.17;;;9.70;;
7917;SDS011;4004;42.624;23.386;2024-02-23T02:13:01;13.13;;;10.13;;
7917;SDS011;4004;42.624;23.386;2024-02-23T02:15:29;16.10;;;10.50;;
7917;SDS011;4004;42.624;23.386;2024-02-23T02:17:55;16.63;;;9.97;;
7917;SDS011;4004;42.624;23.386;2024-02-23T02:20:23;13.47;;;10.70;;
7917;SDS011;4004;42.624;23.386;2024-02-23T02:22:51;13.60;;;10.20;;
7917;SDS011;4004;42.624;23.386;2024-02-23T02:25:20;11.97;;;10.17;;
7917;SDS011;4004;42.624;23.386;2024-02-23T02:27:47;15.90;;;10.40;;
7917;SDS011;4004;42.624;23.386;2024-02-23T02:30:14;15.77;;;9.10;;
7917;SDS011;4004;42.624;23.386;2024-02-23T02:32:41;13.27;;;10.13;;
7917;SDS011;4004;42.624;23.386;2024-02-23T02:35:09;14.20;;;10.17;;
7917;SDS011;4004;42.624;23.386;2024-02-23T02:37:37;14.87;;;10.30;;
7917;SDS011;4004;42.624;23.386;2024-02-23T02:40:04;14.23;;;10.07;;
7917;SDS011;4004;42.624;23.386;2024-02-23T02:42:33;13.03;;;10.33;;
7917;SDS011;4004;42.624;23.386;2024-02-23T02:45:01;17.63;;;10.60;;
7917;SDS011;4004;42.624;23.386;2024-02-23T02:47:28;13.40;;;10.33;;
7917;SDS011;4004;42.624;23.386;2024-02-23T02:49:55;11.60;;;9.97;;
7917;SDS011;4004;42.624;23.386;2024-02-23T02:52:22;15.30;;;10.97;;
7917;SDS011;4004;42.624;23.386;2024-02-23T02:54:49;14.30;;;11.17;;
7917;SDS011;4004;42.624;23.386;2024-02-23T02:57:16;14.97;;;10.30;;
7917;SDS011;4004;42.624;23.386;2024-02-23T02:59:44;17.77;;;10.53;;
7917;SDS011;4004;42.624;23.386;2024-02-23T03:02:11;12.53;;;10.20;;
7917;SDS011;4004;42.624;23.386;2024-02-23T03:04:38;15.03;;;10.23;;
7917;SDS011;4004;42.624;23.386;2024-02-23T03:07:05;14.33;;;10.83;;
7917;SDS011;4004;42.624;23.386;2024-02-23T03:09:32;12.73;;;9.83;;
7917;SDS011;4004;42.624;23.386;2024-02-23T03:11:59;15.50;;;10.17;;
7917;SDS011;4004;42.624;23.386;2024-02-23T03:14:25;12.97;;;10.67;;
7917;SDS011;4004;42.624;23.386;2024-02-23T03:16:54;13.10;;;9.93;;
7917;SDS011;4004;42.624;23.386;2024-02-23T03:19:21;13.20;;;10.10;;
7917;SDS011;4004;42.624;23.386;2024-02-23T03:21:49;14.33;;;9.90;;
7917;SDS011;4004;42.624;23.386;2024-02-23T03:24:16;13.97;;;9.83;;
7917;SDS011;4004;42.624;23.386;2024-02-23T03:26:43;16.93;;;9.50;;
7917;SDS011;4004;42.624;23.386;2024-02-23T03:29:10;12.23;;;9.53;;
7917;SDS011;4004;42.624;23.386;2024-02-23T03:31:37;13.63;;;9.73;;
7917;SDS011;4004;42.624;23.386;2024-02-23T03:34:05;12.70;;;9.27;;
7917;SDS011;4004;42.624;23.386;2024-02-23T03:36:33;12.77;;;9.07;;
7917;SDS011;4004;42.624;23.386;2024-02-23T03:39:00;11.03;;;9.23;;
7917;SDS011;4004;42.624;23.386;2024-02-23T03:41:27;11.10;;;9.27;;
7917;SDS011;4004;42.624;23.386;2024-02-23T03:43:54;11.10;;;8.90;;
7917;SDS011;4004;42.624;23.386;2024-02-23T03:46:20;14.23;;;9.77;;
7917;SDS011;4004;42.624;23.386;2024-02-23T03:48:47;10.77;;;8.80;;
7917;SDS011;4004;42.624;23.386;2024-02-23T03:51:15;12.30;;;9.17;;
7917;SDS011;4004;42.624;23.386;2024-02-23T03:53:42;16.93;;;9.60;;
7917;SDS011;4004;42.624;23.386;2024-02-23T03:56:09;11.90;;;9.37;;
7917;SDS011;4004;42.624;23.386;2024-02-23T03:58:36;12.80;;;9.30;;
7917;SDS011;4004;42.624;23.386;2024-02-23T04:01:03;12.30;;;9.23;;
7917;SDS011;4004;42.624;23.386;2024-02-23T04:03:30;13.43;;;9.70;;
7917;SDS011;4004;42.624;23.386;2024-02-23T04:05:57;15.13;;;10.77;;
7917;SDS011;4004;42.624;23.386;2024-02-23T04:08:25;12.53;;;9.37;;
7917;SDS011;4004;42.624;23.386;2024-02-23T04:10:52;13.40;;;10.27;;
7917;SDS011;4004;42.624;23.386;2024-02-23T04:13:19;13.10;;;10.20;;
7917;SDS011;4004;42.624;23.386;2024-02-23T04:15:46;12.30;;;9.83;;
7917;SDS011;4004;42.624;23.386;2024-02-23T04:18:13;11.10;;;9.63;;
7917;SDS011;4004;42.624;23.386;2024-02-23T04:20:40;12.67;;;10.40;;
7917;SDS011;4004;42.624;23.386;2024-02-23T04:23:08;14.63;;;9.87;;
7917;SDS011;4004;42.624;23.386;2024-02-23T04:25:36;15.03;;;10.20;;
7917;SDS011;4004;42.624;23.386;2024-02-23T04:28:03;11.47;;;8.93;;
7917;SDS011;4004;42.624;23.386;2024-02-23T04:30:30;14.00;;;10.13;;
7917;SDS011;4004;42.624;23.386;2024-02-23T04:32:57;15.20;;;9.83;;
7917;SDS011;4004;42.624;23.386;2024-02-23T04:35:24;14.53;;;10.10;;
7917;SDS011;4004;42.624;23.386;2024-02-23T04:37:51;12.13;;;9.53;;
7917;SDS011;4004;42.624;23.386;2024-02-23T04:40:18;15.63;;;9.67;;
7917;SDS011;4004;42.624;23.386;2024-02-23T04:42:46;10.43;;;9.10;;
7917;SDS011;4004;42.624;23.386;2024-02-23T04:45:13;12.13;;;9.27;;
7917;SDS011;4004;42.624;23.386;2024-02-23T04:47:40;10.80;;;9.63;;
7917;SDS011;4004;42.624;23.386;2024-02-23T04:50:08;13.73;;;9.80;;
7917;SDS011;4004;42.624;23.386;2024-02-23T04:52:35;13.40;;;10.13;;
7917;SDS011;4004;42.624;23.386;2024-02-23T04:55:02;18.53;;;9.47;;
7917;SDS011;4004;42.624;23.386;2024-02-23T04:57:29;12.53;;;8.97;;
7917;SDS011;4004;42.624;23.386;2024-02-23T04:59:59;17.80;;;9.10;;
7917;SDS011;4004;42.624;23.386;2024-02-23T05:02:26;13.33;;;9.33;;
7917;SDS011;4004;42.624;23.386;2024-02-23T05:04:59;13.80;;;9.27;;
7917;SDS011;4004;42.624;23.386;2024-02-23T05:07:25;13.20;;;9.17;;
7917;SDS011;4004;42.624;23.386;2024-02-23T05:09:52;11.93;;;9.37;;
7917;SDS011;4004;42.624;23.386;2024-02-23T05:12:19;12.77;;;9.70;;
7917;SDS011;4004;42.624;23.386;2024-02-23T05:14:46;10.87;;;9.03;;
7917;SDS011;4004;42.624;23.386;2024-02-23T05:17:14;12.57;;;9.37;;
7917;SDS011;4004;42.624;23.386;2024-02-23T05:19:41;13.03;;;9.10;;
7917;SDS011;4004;42.624;23.386;2024-02-23T05:22:08;14.57;;;9.57;;
7917;SDS011;4004;42.624;23.386;2024-02-23T05:24:35;16.50;;;10.33;;
7917;SDS011;4004;42.624;23.386;2024-02-23T05:27:02;19.47;;;10.20;;
7917;SDS011;4004;42.624;23.386;2024-02-23T05:29:29;15.50;;;9.07;;
7917;SDS011;4004;42.624;23.386;2024-02-23T05:31:56;14.30;;;8.30;;
7917;SDS011;4004;42.624;23.386;2024-02-23T05:34:24;13.40;;;9.70;;
7917;SDS011;4004;42.624;23.386;2024-02-23T05:36:51;22.53;;;10.00;;
7917;SDS011;4004;42.624;23.386;2024-02-23T05:39:18;10.20;;;8.80;;
7917;SDS011;4004;42.624;23.386;2024-02-23T05:41:45;16.67;;;10.40;;
7917;SDS011;4004;42.624;23.386;2024-02-23T05:44:12;15.63;;;9.83;;
7917;SDS011;4004;42.624;23.386;2024-02-23T05:46:39;15.80;;;10.07;;
7917;SDS011;4004;42.624;23.386;2024-02-23T05:49:08;14.23;;;9.90;;
7917;SDS011;4004;42.624;23.386;2024-02-23T05:51:37;19.07;;;10.33;;
7917;SDS011;4004;42.624;23.386;2024-02-23T05:54:04;20.03;;;10.63;;
7917;SDS011;4004;42.624;23.386;2024-02-23T05:56:31;14.53;;;10.10;;
7917;SDS011;4004;42.624;23.386;2024-02-23T05:58:58;20.40;;;11.27;;
7917;SDS011;4004;42.624;23.386;2024-02-23T06:01:24;20.07;;;11.30;;
7917;SDS011;4004;42.624;23.386;2024-02-23T06:03:51;13.47;;;9.70;;
7917;SDS011;4004;42.624;23.386;2024-02-23T06:06:20;12.13;;;10.17;;
7917;SDS011;4004;42.624;23.386;2024-02-23T06:08:48;12.93;;;9.97;;
7917;SDS011;4004;42.624;23.386;2024-02-23T06:11:16;18.27;;;11.20;;
7917;SDS011;4004;42.624;23.386;2024-02-23T06:13:43;18.27;;;11.57;;
7917;SDS011;4004;42.624;23.386;2024-02-23T06:16:10;22.33;;;11.80;;
7917;SDS011;4004;42.624;23.386;2024-02-23T06:18:38;28.20;;;12.53;;
7917;SDS011;4004;42.624;23.386;2024-02-23T06:21:15;28.47;;;12.17;;
7917;SDS011;4004;42.624;23.386;2024-02-23T06:23:43;19.80;;;11.10;;
7917;SDS011;4004;42.624;23.386;2024-02-23T06:26:11;19.60;;;11.63;;
7917;SDS011;4004;42.624;23.386;2024-02-23T06:28:38;18.47;;;10.83;;
7917;SDS011;4004;42.624;23.386;2024-02-23T06:31:06;13.77;;;10.20;;
7917;SDS011;4004;42.624;23.386;2024-02-23T06:33:34;16.43;;;10.93;;
7917;SDS011;4004;42.624;23.386;2024-02-23T06:36:01;17.23;;;11.30;;
7917;SDS011;4004;42.624;23.386;2024-02-23T06:38:29;12.43;;;10.60;;
7917;SDS011;4004;42.624;23.386;2024-02-23T06:40:56;22.27;;;11.53;;
7917;SDS011;4004;42.624;23.386;2024-02-23T06:43:24;18.53;;;11.93;;
7917;SDS011;4004;42.624;23.386;2024-02-23T06:45:51;18.03;;;11.37;;
7917;SDS011;4004;42.624;23.386;2024-02-23T06:48:18;18.17;;;10.77;;
7917;SDS011;4004;42.624;23.386;2024-02-23T06:50:45;14.37;;;9.63;;
7917;SDS011;4004;42.624;23.386;2024-02-23T06:53:12;11.93;;;8.97;;
7917;SDS011;4004;42.624;23.386;2024-02-23T06:55:39;10.70;;;9.57;;
7917;SDS011;4004;42.624;23.386;2024-02-23T06:58:06;13.43;;;9.93;;
7917;SDS011;4004;42.624;23.386;2024-02-23T07:00:36;11.70;;;9.33;;
7917;SDS011;4004;42.624;23.386;2024-02-23T07:03:04;11.40;;;9.53;;
7917;SDS011;4004;42.624;23.386;2024-02-23T07:05:31;12.53;;;9.20;;
7917;SDS011;4004;42.624;23.386;2024-02-23T07:07:58;17.70;;;9.80;;
7917;SDS011;4004;42.624;23.386;2024-02-23T07:10:25;10.50;;;9.40;;
7917;SDS011;4004;42.624;23.386;2024-02-23T07:12:52;10.57;;;9.47;;
7917;SDS011;4004;42.624;23.386;2024-02-23T07:15:21;10.60;;;9.47;;
7917;SDS011;4004;42.624;23.386;2024-02-23T07:17:49;11.23;;;9.23;;
7917;SDS011;4004;42.624;23.386;2024-02-23T07:20:16;12.90;;;10.07;;
7917;SDS011;4004;42.624;23.386;2024-02-23T07:22:43;18.23;;;12.90;;
7917;SDS011;4004;42.624;23.386;2024-02-23T07:25:11;18.13;;;11.83;;
7917;SDS011;4004;42.624;23.386;2024-02-23T07:27:38;15.27;;;12.67;;
7917;SDS011;4004;42.624;23.386;2024-02-23T07:30:05;15.53;;;11.13;;
7917;SDS011;4004;42.624;23.386;2024-02-23T07:32:33;13.43;;;11.70;;
7917;SDS011;4004;42.624;23.386;2024-02-23T07:35:01;16.00;;;13.30;;
7917;SDS011;4004;42.624;23.386;2024-02-23T07:37:29;18.03;;;12.90;;
7917;SDS011;4004;42.624;23.386;2024-02-23T07:39:55;17.03;;;12.63;;
7917;SDS011;4004;42.624;23.386;2024-02-23T07:42:22;23.73;;;13.67;;
7917;SDS011;4004;42.624;23.386;2024-02-23T07:44:49;18.47;;;11.97;;
7917;SDS011;4004;42.624;23.386;2024-02-23T07:47:16;13.97;;;12.00;;
7917;SDS011;4004;42.624;23.386;2024-02-23T07:49:43;19.20;;;12.37;;
7917;SDS011;4004;42.624;23.386;2024-02-23T07:52:11;18.73;;;12.23;;
7917;SDS011;4004;42.624;23.386;2024-02-23T07:54:38;17.67;;;12.47;;
7917;SDS011;4004;42.624;23.386;2024-02-23T07:57:05;15.50;;;11.90;;
7917;SDS011;4004;42.624;23.386;2024-02-23T07:59:32;14.40;;;12.47;;
7917;SDS011;4004;42.624;23.386;2024-02-23T08:01:59;19.13;;;12.57;;
7917;SDS011;4004;42.624;23.386;2024-02-23T08:04:26;15.30;;;12.80;;
7917;SDS011;4004;42.624;23.386;2024-02-23T08:06:53;18.27;;;12.03;;
7917;SDS011;4004;42.624;23.386;2024-02-23T08:09:21;15.23;;;12.23;;
7917;SDS011;4004;42.624;23.386;2024-02-23T08:11:49;16.33;;;11.50;;
7917;SDS011;4004;42.624;23.386;2024-02-23T08:14:16;15.60;;;11.60;;
7917;SDS011;4004;42.624;23.386;2024-02-23T08:16:43;14.43;;;11.50;;
7917;SDS011;4004;42.624;23.386;2024-02-23T08:19:10;13.30;;;11.07;;
7917;SDS011;4004;42.624;23.386;2024-02-23T08:21:37;14.63;;;11.40;;
7917;SDS011;4004;42.624;23.386;2024-02-23T08:24:04;14.57;;;11.03;;
7917;SDS011;4004;42.624;23.386;2024-02-23T08:26:33;13.93;;;9.93;;
7917;SDS011;4004;42.624;23.386;2024-02-23T08:29:00;11.77;;;8.97;;
7917;SDS011;4004;42.624;23.386;2024-02-23T08:31:27;12.10;;;8.40;;
7917;SDS011;4004;42.624;23.386;2024-02-23T08:33:54;12.43;;;8.53;;
7917;SDS011;4004;42.624;23.386;2024-02-23T08:36:21;10.70;;;7.63;;
7917;SDS011;4004;42.624;23.386;2024-02-23T08:38:48;12.07;;;8.40;;
7917;SDS011;4004;42.624;23.386;2024-02-23T08:41:15;14.27;;;8.20;;
7917;SDS011;4004;42.624;23.386;2024-02-23T08:43:43;17.67;;;8.17;;
7917;SDS011;4004;42.624;23.386;2024-02-23T08:46:11;8.33;;;6.97;;
7917;SDS011;4004;42.624;23.386;2024-02-23T08:48:38;8.13;;;7.30;;
7917;SDS011;4004;42.624;23.386;2024-02-23T08:51:05;8.77;;;7.20;;
7917;SDS011;4004;42.624;23.386;2024-02-23T08:53:31;13.83;;;7.63;;
7917;SDS011;4004;42.624;23.386;2024-02-23T08:55:58;14.00;;;7.80;;
7917;SDS011;4004;42.624;23.386;2024-02-23T08:58:25;8.80;;;7.73;;
7917;SDS011;4004;42.624;23.386;2024-02-23T09:00:54;8.00;;;6.60;;
7917;SDS011;4004;42.624;23.386;2024-02-23T09:03:20;9.17;;;7.40;;
7917;SDS011;4004;42.624;23.386;2024-02-23T09:05:47;13.93;;;8.20;;
7917;SDS011;4004;42.624;23.386;2024-02-23T09:08:14;11.07;;;8.17;;
7917;SDS011;4004;42.624;23.386;2024-02-23T09:10:41;9.93;;;8.90;;
7917;SDS011;4004;42.624;23.386;2024-02-23T09:13:08;12.17;;;8.73;;
7917;SDS011;4004;42.624;23.386;2024-02-23T09:15:35;8.60;;;7.53;;
7917;SDS011;4004;42.624;23.386;2024-02-23T09:18:03;11.83;;;7.67;;
7917;SDS011;4004;42.624;23.386;2024-02-23T09:20:30;9.70;;;7.57;;
7917;SDS011;4004;42.624;23.386;2024-02-23T09:22:57;9.47;;;7.13;;
7917;SDS011;4004;42.624;23.386;2024-02-23T09:25:25;8.00;;;7.03;;
7917;SDS011;4004;42.624;23.386;2024-02-23T09:27:51;8.07;;;6.50;;
7917;SDS011;4004;42.624;23.386;2024-02-23T09:30:18;7.73;;;5.90;;
7917;SDS011;4004;42.624;23.386;2024-02-23T09:32:45;11.00;;;7.30;;
7917;SDS011;4004;42.624;23.386;2024-02-23T09:35:14;6.30;;;5.70;;
7917;SDS011;4004;42.624;23.386;2024-02-23T09:37:41;7.93;;;5.83;;
7917;SDS011;4004;42.624;23.386;2024-02-23T09:40:08;9.93;;;6.23;;
7917;SDS011;4004;42.624;23.386;2024-02-23T09:42:36;10.17;;;5.80;;
7917;SDS011;4004;42.624;23.386;2024-02-23T09:45:03;10.33;;;6.20;;
7917;SDS011;4004;42.624;23.386;2024-02-23T09:47:32;6.80;;;5.33;;
7917;SDS011;4004;42.624;23.386;2024-02-23T09:49:59;7.90;;;5.63;;
7917;SDS011;4004;42.624;23.386;2024-02-23T09:52:31;6.47;;;4.87;;
7917;SDS011;4004;42.624;23.386;2024-02-23T09:54:58;10.20;;;5.80;;
7917;SDS011;4004;42.624;23.386;2024-02-23T09:57:26;6.43;;;4.53;;
7917;SDS011;4004;42.624;23.386;2024-02-23T09:59:53;6.50;;;4.60;;
7917;SDS011;4004;42.624;23.386;2024-02-23T10:02:21;7.93;;;4.70;;
7917;SDS011;4004;42.624;23.386;2024-02-23T10:04:48;8.03;;;4.70;;
7917;SDS011;4004;42.624;23.386;2024-02-23T10:07:17;7.07;;;4.33;;
7917;SDS011;4004;42.624;23.386;2024-02-23T10:09:46;6.07;;;3.67;;
7917;SDS011;4004;42.624;23.386;2024-02-23T10:12:13;8.93;;;3.80;;
7917;SDS011;4004;42.624;23.386;2024-02-23T10:14:43;3.87;;;2.53;;
7917;SDS011;4004;42.624;23.386;2024-02-23T10:17:09;3.17;;;2.70;;
7917;SDS011;4004;42.624;23.386;2024-02-23T10:19:36;7.60;;;3.93;;
7917;SDS011;4004;42.624;23.386;2024-02-23T10:22:03;4.93;;;4.17;;
7917;SDS011;4004;42.624;23.386;2024-02-23T10:24:31;6.90;;;3.87;;
7917;SDS011;4004;42.624;23.386;2024-02-23T10:26:59;4.27;;;3.47;;
7917;SDS011;4004;42.624;23.386;2024-02-23T10:29:26;4.17;;;3.57;;
7917;SDS011;4004;42.624;23.386;2024-02-23T10:31:54;4.70;;;3.30;;
7917;SDS011;4004;42.624;23.386;2024-02-23T10:34:24;5.43;;;3.00;;
7917;SDS011;4004;42.624;23.386;2024-02-23T10:36:52;10.40;;;3.50;;
7917;SDS011;4004;42.624;23.386;2024-02-23T10:39:20;3.30;;;2.90;;
7917;SDS011;4004;42.624;23.386;2024-02-23T10:41:51;6.13;;;2.97;;
7917;SDS011;4004;42.624;23.386;2024-02-23T10:44:24;3.13;;;2.90;;
7917;SDS011;4004;42.624;23.386;2024-02-23T10:46:52;6.27;;;2.87;;
7917;SDS011;4004;42.624;23.386;2024-02-23T10:49:21;3.70;;;2.93;;
7917;SDS011;4004;42.624;23.386;2024-02-23T10:51:51;4.40;;;2.63;;
7917;SDS011;4004;42.624;23.386;2024-02-23T10:54:18;3.67;;;2.90;;
7917;SDS011;4004;42.624;23.386;2024-02-23T10:56:46;3.77;;;3.20;;
7917;SDS011;4004;42.624;23.386;2024-02-23T10:59:15;4.27;;;2.90;;
7917;SDS011;4004;42.624;23.386;2024-02-23T11:01:45;4.20;;;2.67;;
7917;SDS011;4004;42.624;23.386;2024-02-23T11:04:14;4.37;;;2.60;;
7917;SDS011;4004;42.624;23.386;2024-02-23T11:06:43;7.20;;;2.77;;
7917;SDS011;4004;42.624;23.386;2024-02-23T11:09:15;9.87;;;3.00;;
7917;SDS011;4004;42.624;23.386;2024-02-23T11:11:50;9.90;;;2.70;;
7917;SDS011;4004;42.624;23.386;2024-02-23T11:14:18;6.47;;;2.50;;
7917;SDS011;4004;42.624;23.386;2024-02-23T11:16:58;2.77;;;2.57;;
7917;SDS011;4004;42.624;23.386;2024-02-23T11:19:32;4.93;;;2.60;;
7917;SDS011;4004;42.624;23.386;2024-02-23T11:21:59;2.90;;;2.60;;
7917;SDS011;4004;42.624;23.386;2024-02-23T11:24:28;2.93;;;2.63;;
7917;SDS011;4004;42.624;23.386;2024-02-23T11:26:58;2.53;;;2.23;;
7917;SDS011;4004;42.624;23.386;2024-02-23T11:29:33;3.87;;;2.67;;
7917;SDS011;4004;42.624;23.386;2024-02-23T11:32:03;2.70;;;2.50;;
7917;SDS011;4004;42.624;23.386;2024-02-23T11:34:30;2.90;;;2.30;;
7917;SDS011;4004;42.624;23.386;2024-02-23T11:36:57;2.33;;;2.07;;
7917;SDS011;4004;42.624;23.386;2024-02-23T11:39:25;4.47;;;2.27;;
7917;SDS011;4004;42.624;23.386;2024-02-23T11:41:52;3.60;;;2.50;;
7917;SDS011;4004;42.624;23.386;2024-02-23T11:44:19;7.07;;;3.00;;
7917;SDS011;4004;42.624;23.386;2024-02-23T11:46:46;3.80;;;2.50;;
7917;SDS011;4004;42.624;23.386;2024-02-23T11:49:15;4.20;;;2.30;;
7917;SDS011;4004;42.624;23.386;2024-02-23T11:51:42;11.73;;;2.80;;
7917;SDS011;4004;42.624;23.386;2024-02-23T11:54:09;1.97;;;1.80;;
7917;SDS011;4004;42.624;23.386;2024-02-23T11:56:36;3.03;;;2.30;;
7917;SDS011;4004;42.624;23.386;2024-02-23T11:59:03;7.30;;;2.63;;
7917;SDS011;4004;42.624;23.386;2024-02-23T12:01:31;3.67;;;2.60;;
7917;SDS011;4004;42.624;23.386;2024-02-23T12:03:58;2.37;;;2.17;;
7917;SDS011;4004;42.624;23.386;2024-02-23T12:06:27;6.87;;;2.23;;
7917;SDS011;4004;42.624;23.386;2024-02-23T12:08:57;3.23;;;2.73;;
7917;SDS011;4004;42.624;23.386;2024-02-23T12:11:24;5.20;;;2.67;;
7917;SDS011;4004;42.624;23.386;2024-02-23T12:13:52;4.60;;;2.47;;
7917;SDS011;4004;42.624;23.386;2024-02-23T12:16:20;3.70;;;2.20;;
7917;SDS011;4004;42.624;23.386;2024-02-23T12:18:52;5.97;;;2.00;;
7917;SDS011;4004;42.624;23.386;2024-02-23T12:21:20;4.57;;;2.53;;
7917;SDS011;4004;42.624;23.386;2024-02-23T12:23:49;15.47;;;3.77;;
7917;SDS011;4004;42.624;23.386;2024-02-23T12:26:16;5.77;;;2.57;;
7917;SDS011;4004;42.624;23.386;2024-02-23T12:28:44;6.00;;;2.40;;
7917;SDS011;4004;42.624;23.386;2024-02-23T12:31:11;3.63;;;2.40;;
7917;SDS011;4004;42.624;23.386;2024-02-23T12:33:40;3.33;;;2.30;;
7917;SDS011;4004;42.624;23.386;2024-02-23T12:36:13;9.83;;;2.80;;
7917;SDS011;4004;42.624;23.386;2024-02-23T12:38:39;2.53;;;2.33;;
7917;SDS011;4004;42.624;23.386;2024-02-23T12:41:08;3.03;;;2.20;;
7917;SDS011;4004;42.624;23.386;2024-02-23T12:43:36;3.60;;;2.47;;
7917;SDS011;4004;42.624;23.386;2024-02-23T12:46:03;3.03;;;2.40;;
7917;SDS011;4004;42.624;23.386;2024-02-23T12:48:31;6.20;;;2.60;;
7917;SDS011;4004;42.624;23.386;2024-02-23T12:50:57;2.40;;;1.93;;
7917;SDS011;4004;42.624;23.386;2024-02-23T12:53:31;2.17;;;1.97;;
7917;SDS011;4004;42.624;23.386;2024-02-23T12:55:59;2.23;;;2.03;;
7917;SDS011;4004;42.624;23.386;2024-02-23T12:58:28;6.87;;;2.30;;
7917;SDS011;4004;42.624;23.386;2024-02-23T13:00:55;3.93;;;2.00;;
7917;SDS011;4004;42.624;23.386;2024-02-23T13:03:23;4.07;;;2.30;;
7917;SDS011;4004;42.624;23.386;2024-02-23T13:05:52;3.20;;;2.27;;
7917;SDS011;4004;42.624;23.386;2024-02-23T13:08:19;5.40;;;2.10;;
7917;SDS011;4004;42.624;23.386;2024-02-23T13:10:46;2.00;;;1.80;;
7917;SDS011;4004;42.624;23.386;2024-02-23T13:13:13;2.20;;;2.00;;
7917;SDS011;4004;42.624;23.386;2024-02-23T13:15:42;2.10;;;1.90;;
7917;SDS011;4004;42.624;23.386;2024-02-23T13:18:09;2.87;;;2.40;;
7917;SDS011;4004;42.624;23.386;2024-02-23T13:20:36;3.80;;;2.27;;
7917;SDS011;4004;42.624;23.386;2024-02-23T13:23:03;3.20;;;2.20;;
7917;SDS011;4004;42.624;23.386;2024-02-23T13:25:32;4.47;;;2.43;;
7917;SDS011;4004;42.624;23.386;2024-02-23T13:27:59;5.43;;;2.67;;
7917;SDS011;4004;42.624;23.386;2024-02-23T13:30:26;3.57;;;2.17;;
7917;SDS011;4004;42.624;23.386;2024-02-23T13:32:54;3.50;;;2.20;;
7917;SDS011;4004;42.624;23.386;2024-02-23T13:35:21;3.60;;;2.63;;
7917;SDS011;4004;42.624;23.386;2024-02-23T13:37:48;3.00;;;1.90;;
7917;SDS011;4004;42.624;23.386;2024-02-23T13:40:15;1.87;;;1.77;;
7917;SDS011;4004;42.624;23.386;2024-02-23T13:42:42;2.40;;;2.20;;
7917;SDS011;4004;42.624;23.386;2024-02-23T13:45:11;3.13;;;2.40;;
7917;SDS011;4004;42.624;23.386;2024-02-23T13:47:39;2.80;;;2.10;;
7917;SDS011;4004;42.624;23.386;2024-02-23T13:50:08;3.93;;;2.50;;
7917;SDS011;4004;42.624;23.386;2024-02-23T13:52:35;2.93;;;2.30;;
7917;SDS011;4004;42.624;23.386;2024-02-23T13:55:02;3.60;;;2.27;;
7917;SDS011;4004;42.624;23.386;2024-02-23T13:57:30;5.27;;;2.10;;
7917;SDS011;4004;42.624;23.386;2024-02-23T13:59:57;4.77;;;2.57;;
7917;SDS011;4004;42.624;23.386;2024-02-23T14:02:25;6.80;;;2.90;;
7917;SDS011;4004;42.624;23.386;2024-02-23T14:04:55;4.67;;;2.30;;
7917;SDS011;4004;42.624;23.386;2024-02-23T14:07:30;8.20;;;2.67;;
7917;SDS011;4004;42.624;23.386;2024-02-23T14:09:57;5.33;;;2.90;;
7917;SDS011;4004;42.624;23.386;2024-02-23T14:12:23;2.50;;;2.30;;
7917;SDS011;4004;42.624;23.386;2024-02-23T14:14:50;4.30;;;2.40;;
7917;SDS011;4004;42.624;23.386;2024-02-23T14:17:17;3.17;;;2.40;;
7917;SDS011;4004;42.624;23.386;2024-02-23T14:19:44;4.33;;;2.37;;
7917;SDS011;4004;42.624;23.386;2024-02-23T14:22:11;2.60;;;2.40;;
7917;SDS011;4004;42.624;23.386;2024-02-23T14:24:39;5.13;;;2.67;;
7917;SDS011;4004;42.624;23.386;2024-02-23T14:27:07;2.60;;;2.40;;
7917;SDS011;4004;42.624;23.386;2024-02-23T14:29:33;2.83;;;2.60;;
7917;SDS011;4004;42.624;23.386;2024-02-23T14:32:00;2.50;;;2.30;;
7917;SDS011;4004;42.624;23.386;2024-02-23T14:34:27;10.03;;;2.90;;
7917;SDS011;4004;42.624;23.386;2024-02-23T14:36:55;8.63;;;2.87;;
7917;SDS011;4004;42.624;23.386;2024-02-23T14:39:22;4.27;;;2.50;;
7917;SDS011;4004;42.624;23.386;2024-02-23T14:41:50;3.00;;;2.20;;
7917;SDS011;4004;42.624;23.386;2024-02-23T14:44:17;4.37;;;2.60;;
7917;SDS011;4004;42.624;23.386;2024-02-23T14:46:44;3.40;;;2.30;;
7917;SDS011;4004;42.624;23.386;2024-02-23T14:49:11;2.37;;;2.10;;